Time;durP1;ratioP1;P1;durP2;ratioP2;P2;SDS_P1;SDS_P2;PMS_P1;PMS_P2;Temp;Humidity;BMP_temperature;BMP_pressure;BME280_temperature;BME280_humidity;BME280_pressure;Samples;Min_cycle;Max_cycle;Signal;HPM_P1;HPM_P2
2021/08/25 19:38:47;;;;;;;1.83;1.65;;;;;;;;;;3423796;27;20239;-79
2021/08/25 19:41:14;;;;;;;2.38;2.17;;;;;;;;;;4870579;29;20200;-79
2021/08/25 19:43:42;;;;;;;3.08;1.95;;;;;;;;;;4878698;29;20717;-78
2021/08/25 19:46:09;;;;;;;2.22;1.95;;;;;;;;;;4877032;29;20216;-77
2021/08/25 19:48:37;;;;;;;3.20;2.90;;;;;;;;;;4878869;29;20192;-77
2021/08/25 19:51:04;;;;;;;3.15;2.83;;;;;;;;;;4862837;29;20231;-79
2021/08/25 19:53:32;;;;;;;2.50;2.30;;;;;;;;;;4913247;23;20245;-81
2021/08/25 19:56:01;;;;;;;2.65;2.45;;;;;;;;;;4913371;29;20199;-81
2021/08/25 19:58:30;;;;;;;2.83;2.63;;;;;;;;;;4915426;29;20232;-84
2021/08/25 20:00:57;;;;;;;2.70;2.50;;;;;;;;;;4916217;29;20555;-85
2021/08/25 20:03:25;;;;;;;2.75;2.22;;;;;;;;;;4915164;29;20226;-81
2021/08/25 20:05:52;;;;;;;2.30;2.10;;;;;;;;;;4915728;29;20190;-83
2021/08/25 20:08:20;;;;;;;2.47;2.28;;;;;;;;;;4916582;29;20205;-84
2021/08/25 20:10:47;;;;;;;2.53;2.33;;;;;;;;;;4917299;29;20233;-84
2021/08/25 20:13:16;;;;;;;2.33;2.15;;;;;;;;;;4917580;29;20226;-83
2021/08/25 20:15:44;;;;;;;2.50;2.17;;;;;;;;;;4916689;29;20205;-84
2021/08/25 20:18:12;;;;;;;3.17;2.88;;;;;;;;;;4916267;29;20209;-84
2021/08/25 20:20:39;;;;;;;2.35;2.15;;;;;;;;;;4901236;29;20554;-85
2021/08/25 20:23:07;;;;;;;2.67;2.47;;;;;;;;;;4908382;29;20226;-83
2021/08/25 20:25:34;;;;;;;2.35;1.92;;;;;;;;;;4917614;29;20198;-84
2021/08/25 20:28:02;;;;;;;3.10;2.20;;;;;;;;;;4918314;29;20562;-85
2021/08/25 20:30:31;;;;;;;2.10;1.90;;;;;;;;;;4918524;29;20226;-84
2021/08/25 20:32:58;;;;;;;2.22;2.03;;;;;;;;;;4918579;29;20226;-86
2021/08/25 20:35:26;;;;;;;2.40;2.22;;;;;;;;;;4916851;29;20210;-86
2021/08/25 20:37:54;;;;;;;2.45;1.85;;;;;;;;;;4913506;29;20206;-85
2021/08/25 20:40:22;;;;;;;2.10;1.90;;;;;;;;;;4916203;29;20187;-84
2021/08/25 20:42:51;;;;;;;2.50;1.77;;;;;;;;;;4916270;29;20309;-83
2021/08/25 20:45:19;;;;;;;1.77;1.67;;;;;;;;;;4898034;29;20199;-84
2021/08/25 20:47:48;;;;;;;2.33;1.80;;;;;;;;;;4900123;29;20675;-82
2021/08/25 20:50:16;;;;;;;1.58;1.48;;;;;;;;;;4912767;29;20214;-82
2021/08/25 20:52:45;;;;;;;2.58;1.92;;;;;;;;;;4916348;29;20238;-84
2021/08/25 20:55:14;;;;;;;2.33;1.90;;;;;;;;;;4916957;29;20207;-84
2021/08/25 20:57:41;;;;;;;2.85;1.60;;;;;;;;;;4919313;29;20187;-82
2021/08/25 21:00:11;;;;;;;1.30;1.15;;;;;;;;;;4908949;29;20561;-82
2021/08/25 21:02:38;;;;;;;1.27;1.17;;;;;;;;;;4901124;29;20223;-82
2021/08/25 21:05:09;;;;;;;1.40;1.30;;;;;;;;;;4901309;29;20207;-84
2021/08/25 21:07:36;;;;;;;1.00;1.00;;;;;;;;;;4901367;29;20665;-82
2021/08/25 21:10:04;;;;;;;1.20;1.20;;;;;;;;;;4901183;29;20195;-83
2021/08/25 21:12:32;;;;;;;1.40;1.23;;;;;;;;;;4901363;29;20231;-85
2021/08/25 21:14:59;;;;;;;1.00;1.00;;;;;;;;;;4906288;29;20198;-83
2021/08/25 21:17:27;;;;;;;0.93;0.93;;;;;;;;;;4920350;29;20195;-82
2021/08/25 21:19:54;;;;;;;1.33;1.23;;;;;;;;;;4910340;29;20214;-82
2021/08/25 21:22:23;;;;;;;1.25;1.20;;;;;;;;;;4900955;29;20230;-84
2021/08/25 21:24:51;;;;;;;1.10;1.10;;;;;;;;;;4906284;29;20191;-83
2021/08/25 21:27:18;;;;;;;1.30;1.20;;;;;;;;;;4919834;29;20211;-84
2021/08/25 21:29:45;;;;;;;0.80;0.80;;;;;;;;;;4911373;29;20196;-82
2021/08/25 21:32:13;;;;;;;1.27;1.17;;;;;;;;;;4900745;29;20239;-84
2021/08/25 21:34:40;;;;;;;1.10;1.10;;;;;;;;;;4900513;29;20209;-84
2021/08/25 21:37:08;;;;;;;1.23;1.13;;;;;;;;;;4900933;29;20192;-83
2021/08/25 21:39:37;;;;;;;1.40;1.30;;;;;;;;;;4907827;29;20199;-81
2021/08/25 21:42:05;;;;;;;1.30;1.20;;;;;;;;;;4919589;29;20230;-80
2021/08/25 21:44:33;;;;;;;0.90;0.90;;;;;;;;;;4919726;29;20222;-80
2021/08/25 21:47:00;;;;;;;0.80;0.80;;;;;;;;;;4911415;29;20270;-80
2021/08/25 21:49:28;;;;;;;1.20;1.20;;;;;;;;;;4907261;29;20206;-82
2021/08/25 21:51:55;;;;;;;1.20;1.10;;;;;;;;;;4918661;29;20708;-81
2021/08/25 21:54:23;;;;;;;2.13;1.30;;;;;;;;;;4919392;29;20581;-84
2021/08/25 21:56:52;;;;;;;1.15;1.15;;;;;;;;;;4919550;29;20568;-82
2021/08/25 21:59:30;;;;;;;1.38;1.27;;;;;;;;;;4914204;29;20199;-82
2021/08/25 22:01:57;;;;;;;1.50;1.40;;;;;;;;;;4900702;29;20187;-81
2021/08/25 22:04:25;;;;;;;1.23;1.13;;;;;;;;;;4899810;29;20207;-81
2021/08/25 22:06:52;;;;;;;1.60;1.50;;;;;;;;;;4900143;29;20195;-82
2021/08/25 22:09:20;;;;;;;1.50;1.35;;;;;;;;;;4904328;29;20568;-81
2021/08/25 22:11:47;;;;;;;1.35;1.25;;;;;;;;;;4919045;29;20210;-81
2021/08/25 22:14:17;;;;;;;1.45;1.35;;;;;;;;;;4919416;29;20189;-80
2021/08/25 22:16:44;;;;;;;2.63;1.50;;;;;;;;;;4918946;29;20206;-82
2021/08/25 22:19:11;;;;;;;1.20;1.17;;;;;;;;;;4914746;29;20793;-81
2021/08/25 22:21:39;;;;;;;2.13;2.00;;;;;;;;;;4900296;29;20187;-82
2021/08/25 22:24:07;;;;;;;1.63;1.52;;;;;;;;;;4899944;29;20207;-83
2021/08/25 22:26:34;;;;;;;1.35;1.30;;;;;;;;;;4899827;29;20184;-81
2021/08/25 22:29:02;;;;;;;1.92;1.83;;;;;;;;;;4899633;29;20199;-82
2021/08/25 22:31:31;;;;;;;1.65;1.55;;;;;;;;;;4898287;29;20772;-81
2021/08/25 22:33:58;;;;;;;1.50;1.40;;;;;;;;;;4898212;29;20231;-82
2021/08/25 22:36:26;;;;;;;2.17;1.90;;;;;;;;;;4899794;29;20191;-81
2021/08/25 22:38:53;;;;;;;1.58;1.48;;;;;;;;;;4899427;29;20207;-81
2021/08/25 22:41:21;;;;;;;1.60;1.50;;;;;;;;;;4899465;29;20195;-81
2021/08/25 22:43:48;;;;;;;2.08;1.88;;;;;;;;;;4898961;29;20234;-83
2021/08/25 22:46:16;;;;;;;1.85;1.67;;;;;;;;;;4899263;29;20190;-82
2021/08/25 22:48:45;;;;;;;2.00;1.80;;;;;;;;;;4899124;29;20210;-82
2021/08/25 22:51:13;;;;;;;1.88;1.77;;;;;;;;;;4899151;29;20643;-82
2021/08/25 22:53:40;;;;;;;1.65;1.40;;;;;;;;;;4898766;29;20615;-81
2021/08/25 22:56:08;;;;;;;1.52;1.42;;;;;;;;;;4899187;29;20207;-82
2021/08/25 22:58:35;;;;;;;1.20;1.10;;;;;;;;;;4898995;29;20647;-81
2021/08/25 23:01:03;;;;;;;1.17;1.10;;;;;;;;;;4899125;29;20198;-81
2021/08/25 23:03:30;;;;;;;0.98;0.98;;;;;;;;;;4898490;29;20226;-81
2021/08/25 23:05:59;;;;;;;1.48;1.38;;;;;;;;;;4898856;29;20195;-81
2021/08/25 23:08:27;;;;;;;0.98;0.98;;;;;;;;;;4898867;29;20199;-81
2021/08/25 23:10:54;;;;;;;1.85;1.52;;;;;;;;;;4899316;29;20198;-83
2021/08/25 23:13:22;;;;;;;1.13;1.10;;;;;;;;;;4898605;29;20697;-81
2021/08/25 23:15:49;;;;;;;1.08;1.08;;;;;;;;;;4898832;29;20195;-81
2021/08/25 23:18:16;;;;;;;1.30;1.20;;;;;;;;;;4898091;29;20211;-81
2021/08/25 23:20:44;;;;;;;1.00;0.98;;;;;;;;;;4898485;29;20215;-82
2021/08/25 23:23:13;;;;;;;1.27;1.17;;;;;;;;;;4898920;29;20227;-82
2021/08/25 23:25:40;;;;;;;1.00;1.00;;;;;;;;;;4898758;29;20219;-83
2021/08/25 23:28:08;;;;;;;1.50;1.40;;;;;;;;;;4899113;29;20202;-83
2021/08/25 23:30:35;;;;;;;0.70;0.70;;;;;;;;;;4898686;29;20215;-82
2021/08/25 23:33:03;;;;;;;1.00;1.00;;;;;;;;;;4898096;29;20239;-82
2021/08/25 23:35:30;;;;;;;0.90;0.90;;;;;;;;;;4898419;29;20206;-83
2021/08/25 23:37:58;;;;;;;0.90;0.90;;;;;;;;;;4898479;29;20211;-83
2021/08/25 23:40:27;;;;;;;1.20;1.20;;;;;;;;;;4898954;29;20203;-83
2021/08/25 23:42:54;;;;;;;1.23;1.13;;;;;;;;;;4898623;29;20223;-83
2021/08/25 23:45:22;;;;;;;1.10;1.10;;;;;;;;;;4898370;29;20180;-83
2021/08/25 23:47:49;;;;;;;0.80;0.80;;;;;;;;;;4898204;29;20191;-81
2021/08/25 23:50:18;;;;;;;1.27;1.23;;;;;;;;;;4898602;29;20196;-82
2021/08/25 23:52:48;;;;;;;1.70;1.30;;;;;;;;;;4898815;29;20276;-83
2021/08/25 23:55:16;;;;;;;1.10;1.10;;;;;;;;;;4898801;29;20206;-82
2021/08/25 23:57:46;;;;;;;1.05;0.95;;;;;;;;;;4898577;29;20239;-81
